createdAt,value
2019-05-22T00:00:11.755Z,0.00
2019-05-22T00:01:11.868Z,0.00
2019-05-22T00:02:11.999Z,0.00
2019-05-22T00:03:12.130Z,0.00
2019-05-22T00:04:12.350Z,0.00
2019-05-22T00:05:13.429Z,0.00
2019-05-22T00:06:12.650Z,0.00
2019-05-22T00:07:12.883Z,0.00
2019-05-22T00:08:13.028Z,0.00
2019-05-22T00:09:13.210Z,0.00
2019-05-22T00:10:13.352Z,0.00
2019-05-22T00:11:13.587Z,0.00
2019-05-22T00:12:13.705Z,0.00
2019-05-22T00:13:14.023Z,0.00
2019-05-22T00:14:14.211Z,0.00
2019-05-22T00:15:14.339Z,0.00
2019-05-22T00:16:14.464Z,0.00
2019-05-22T00:17:14.704Z,0.00
2019-05-22T00:18:14.854Z,0.00
2019-05-22T00:19:15.418Z,0.00
2019-05-22T00:20:15.931Z,0.00
2019-05-22T00:21:15.288Z,0.00
2019-05-22T00:22:15.414Z,0.00
2019-05-22T00:23:15.651Z,0.00
2019-05-22T00:24:15.821Z,0.00
2019-05-22T00:25:15.991Z,0.00
2019-05-22T00:26:16.916Z,0.00
2019-05-22T00:27:16.269Z,0.00
2019-05-22T00:28:16.425Z,0.00
2019-05-22T00:29:16.931Z,0.00
2019-05-22T00:30:16.728Z,0.00
2019-05-22T00:31:16.918Z,0.00
2019-05-22T00:32:17.093Z,0.00
2019-05-22T00:33:17.272Z,0.00
2019-05-22T00:34:17.411Z,0.00
2019-05-22T00:35:17.566Z,0.00
2019-05-22T00:36:17.751Z,0.00
2019-05-22T00:37:18.407Z,0.00
2019-05-22T00:38:18.911Z,0.00
2019-05-22T00:39:18.166Z,0.00
2019-05-22T00:40:18.366Z,0.00
2019-05-22T00:41:18.574Z,0.00
2019-05-22T00:42:18.663Z,0.00
2019-05-22T00:43:18.820Z,0.00
2019-05-22T00:44:18.958Z,0.00
2019-05-22T00:45:19.176Z,0.00
2019-05-22T00:46:19.268Z,0.00
2019-05-22T00:47:19.437Z,0.00
2019-05-22T00:48:19.652Z,0.00
2019-05-22T00:49:19.824Z,0.00
2019-05-22T00:50:20.434Z,0.00
2019-05-22T00:51:20.225Z,0.00
2019-05-22T00:52:20.922Z,0.00
2019-05-22T00:53:20.557Z,0.00
2019-05-22T00:54:20.706Z,0.00
2019-05-22T00:55:20.877Z,0.00
2019-05-22T00:56:21.051Z,0.00
2019-05-22T00:57:21.915Z,0.00
2019-05-22T00:58:21.419Z,0.00
2019-05-22T00:59:21.634Z,0.00
2019-05-22T01:00:21.760Z,0.00
2019-05-22T01:01:21.913Z,0.00
2019-05-22T01:02:22.078Z,0.00
2019-05-22T01:03:22.235Z,0.00
2019-05-22T01:04:22.388Z,0.00
2019-05-22T01:05:22.542Z,0.00
2019-05-22T01:06:22.690Z,0.00
2019-05-22T01:07:22.833Z,0.00
2019-05-22T01:08:22.981Z,0.00
2019-05-22T01:09:23.121Z,0.00
2019-05-22T01:10:23.266Z,0.00
2019-05-22T01:11:23.445Z,0.00
2019-05-22T01:12:23.626Z,0.00
2019-05-22T01:13:23.804Z,0.00
2019-05-22T01:14:23.978Z,0.00
2019-05-22T01:15:24.130Z,0.00
2019-05-22T01:16:24.274Z,0.00
2019-05-22T01:17:24.955Z,0.00
2019-05-22T01:18:24.576Z,0.00
2019-05-22T01:19:24.717Z,0.00
2019-05-22T01:20:24.839Z,0.00
2019-05-22T01:21:25.945Z,0.00
2019-05-22T01:22:25.211Z,0.00
2019-05-22T01:23:25.370Z,0.00
2019-05-22T01:24:25.484Z,0.00
2019-05-22T01:25:26.446Z,0.00
2019-05-22T01:26:25.936Z,0.00
2019-05-22T01:27:26.081Z,0.00
2019-05-22T01:28:26.239Z,0.00
2019-05-22T01:29:26.459Z,0.00
2019-05-22T01:30:26.607Z,0.00
2019-05-22T01:31:26.761Z,0.00
2019-05-22T01:32:26.929Z,0.00
2019-05-22T01:33:27.072Z,0.00
2019-05-22T01:34:27.263Z,0.00
2019-05-22T01:35:27.421Z,0.00
2019-05-22T01:36:27.567Z,0.00
2019-05-22T01:37:28.422Z,0.00
2019-05-22T01:38:28.428Z,0.00
2019-05-22T01:39:28.039Z,0.00
2019-05-22T01:40:28.161Z,0.00
2019-05-22T01:41:28.388Z,0.00
2019-05-22T01:42:28.634Z,0.00
2019-05-22T01:43:28.862Z,0.00
2019-05-22T01:44:29.026Z,0.00
2019-05-22T01:45:29.165Z,0.00
2019-05-22T01:46:29.285Z,0.00
2019-05-22T01:47:29.417Z,0.00
2019-05-22T01:48:29.598Z,0.00
2019-05-22T01:49:29.706Z,0.00
2019-05-22T01:50:29.830Z,0.00
2019-05-22T01:51:29.985Z,0.00
2019-05-22T01:52:30.221Z,0.00
2019-05-22T01:53:30.405Z,0.00
2019-05-22T01:54:30.604Z,0.00
2019-05-22T01:55:31.437Z,0.00
2019-05-22T01:56:30.930Z,0.00
2019-05-22T01:57:31.073Z,0.00
2019-05-22T01:58:31.249Z,0.00
2019-05-22T01:59:31.430Z,0.00
2019-05-22T02:00:31.575Z,0.00
2019-05-22T02:01:31.802Z,0.00
2019-05-22T02:02:32.924Z,0.00
2019-05-22T02:03:32.964Z,0.00
2019-05-22T02:04:32.298Z,0.00
2019-05-22T02:05:32.455Z,0.00
2019-05-22T02:06:32.601Z,0.00
2019-05-22T02:07:33.439Z,0.00
2019-05-22T02:08:32.938Z,0.00
2019-05-22T02:09:33.067Z,0.00
2019-05-22T02:10:33.221Z,0.00
2019-05-22T02:11:33.356Z,0.00
2019-05-22T02:12:33.526Z,0.00
2019-05-22T02:13:33.684Z,0.00
2019-05-22T02:14:33.816Z,0.00
2019-05-22T02:15:33.977Z,0.00
2019-05-22T02:16:34.118Z,0.00
2019-05-22T02:17:34.938Z,0.00
2019-05-22T02:18:35.436Z,0.00
2019-05-22T02:19:34.694Z,0.00
2019-05-22T02:20:34.838Z,0.00
2019-05-22T02:21:34.967Z,0.00
2019-05-22T02:22:35.073Z,0.00
2019-05-22T02:23:35.218Z,0.00
2019-05-22T02:24:35.449Z,0.00
2019-05-22T02:25:35.571Z,0.00
2019-05-22T02:26:35.738Z,0.00
2019-05-22T02:27:35.858Z,0.00
2019-05-22T02:28:36.000Z,0.00
2019-05-22T02:29:36.125Z,0.00
2019-05-22T02:30:36.936Z,0.00
2019-05-22T02:31:36.458Z,0.00
2019-05-22T02:32:36.608Z,0.00
2019-05-22T02:33:36.725Z,0.00
2019-05-22T02:34:36.859Z,0.00
2019-05-22T02:35:37.031Z,0.00
2019-05-22T02:36:37.216Z,0.00
2019-05-22T02:37:37.353Z,0.00
2019-05-22T02:38:37.493Z,0.00
2019-05-22T02:39:37.612Z,0.00
2019-05-22T02:40:37.765Z,0.00
2019-05-22T02:41:37.931Z,0.00
2019-05-22T02:42:38.084Z,0.00
2019-05-22T02:43:38.211Z,0.00
2019-05-22T02:44:38.954Z,0.00
2019-05-22T02:45:38.600Z,0.00
2019-05-22T02:46:38.769Z,0.00
2019-05-22T02:47:38.905Z,0.00
2019-05-22T02:48:42.271Z,0.00
2019-05-22T02:49:40.937Z,0.00
2019-05-22T02:50:39.417Z,0.00
2019-05-22T02:51:39.542Z,0.00
2019-05-22T02:52:39.790Z,0.00
2019-05-22T02:53:39.908Z,0.00
2019-05-22T02:54:40.072Z,0.00
2019-05-22T02:55:40.252Z,0.00
2019-05-22T02:56:40.416Z,0.00
2019-05-22T02:57:41.449Z,0.00
2019-05-22T02:58:40.683Z,0.00
2019-05-22T02:59:40.822Z,0.00
2019-05-22T03:00:40.972Z,0.00
2019-05-22T03:01:41.128Z,0.00
2019-05-22T03:02:41.307Z,0.00
2019-05-22T03:03:41.405Z,0.00
2019-05-22T03:04:41.559Z,0.00
2019-05-22T03:05:41.699Z,0.00
2019-05-22T03:06:42.853Z,0.00
2019-05-22T03:07:42.045Z,0.00
2019-05-22T03:08:42.177Z,0.00
2019-05-22T03:09:42.327Z,0.00
2019-05-22T03:10:42.477Z,0.00
2019-05-22T03:11:43.635Z,0.00
2019-05-22T03:12:43.440Z,0.00
2019-05-22T03:13:42.930Z,0.00
2019-05-22T03:14:43.079Z,0.00
2019-05-22T03:15:43.240Z,0.00
2019-05-22T03:16:43.372Z,0.00
2019-05-22T03:17:43.559Z,4.00
2019-05-22T03:18:43.719Z,4.00
2019-05-22T03:19:44.444Z,4.00
2019-05-22T03:20:44.072Z,4.00
2019-05-22T03:21:44.217Z,0.00
2019-05-22T03:22:44.363Z,4.00
2019-05-22T03:23:44.526Z,4.00
2019-05-22T03:24:44.663Z,4.00
2019-05-22T03:25:44.849Z,4.00
2019-05-22T03:26:45.053Z,4.00
2019-05-22T03:27:45.220Z,4.00
2019-05-22T03:28:45.405Z,4.00
2019-05-22T03:29:45.558Z,4.00
2019-05-22T03:30:45.730Z,4.00
2019-05-22T03:31:45.871Z,4.00
2019-05-22T03:32:47.050Z,4.00
2019-05-22T03:33:46.160Z,4.00
2019-05-22T03:34:46.327Z,4.00
2019-05-22T03:35:46.642Z,8.00
2019-05-22T03:36:47.458Z,4.00
2019-05-22T03:37:47.471Z,8.00
2019-05-22T03:38:47.003Z,8.00
2019-05-22T03:39:47.128Z,8.00
2019-05-22T03:40:47.277Z,8.00
2019-05-22T03:41:47.414Z,12.00
2019-05-22T03:42:47.554Z,12.00
2019-05-22T03:43:47.732Z,8.00
2019-05-22T03:44:47.844Z,8.00
2019-05-22T03:45:48.957Z,12.00
2019-05-22T03:46:48.220Z,8.00
2019-05-22T03:47:48.387Z,12.00
2019-05-22T03:48:48.563Z,12.00
2019-05-22T03:49:48.705Z,16.00
2019-05-22T03:50:48.862Z,16.00
2019-05-22T03:51:49.031Z,16.00
2019-05-22T03:52:49.162Z,16.00
2019-05-22T03:53:50.949Z,16.00
2019-05-22T03:54:49.553Z,16.00
2019-05-22T03:55:49.684Z,20.00
2019-05-22T03:56:49.849Z,24.00
2019-05-22T03:57:50.002Z,20.00
2019-05-22T03:58:50.137Z,20.00
2019-05-22T03:59:50.274Z,24.00
2019-05-22T04:00:50.468Z,24.00
2019-05-22T04:01:50.698Z,28.00
2019-05-22T04:02:50.861Z,28.00
2019-05-22T04:03:51.023Z,28.00
2019-05-22T04:04:51.956Z,32.00
2019-05-22T04:05:52.346Z,32.00
2019-05-22T04:06:51.969Z,32.00
2019-05-22T04:07:51.719Z,36.00
2019-05-22T04:08:51.971Z,36.00
2019-05-22T04:09:52.017Z,36.00
2019-05-22T04:10:52.200Z,36.00
2019-05-22T04:11:52.474Z,32.00
2019-05-22T04:12:52.467Z,32.00
2019-05-22T04:13:52.627Z,32.00
2019-05-22T04:14:52.805Z,32.00
2019-05-22T04:15:53.992Z,40.00
2019-05-22T04:16:53.213Z,36.00
2019-05-22T04:17:53.343Z,36.00
2019-05-22T04:18:53.488Z,40.00
2019-05-22T04:19:53.622Z,52.00
2019-05-22T04:20:53.760Z,52.00
2019-05-22T04:21:53.901Z,52.00
2019-05-22T04:22:54.030Z,52.00
2019-05-22T04:23:54.271Z,64.00
2019-05-22T04:24:54.406Z,76.00
2019-05-22T04:25:54.568Z,80.00
2019-05-22T04:26:55.465Z,96.00
2019-05-22T04:27:54.831Z,104.00
2019-05-22T04:28:55.465Z,108.00
2019-05-22T04:29:55.197Z,108.00
2019-05-22T04:30:59.492Z,108.00
2019-05-22T04:31:55.536Z,104.00
2019-05-22T04:32:55.680Z,92.00
2019-05-22T04:33:55.821Z,88.00
2019-05-22T04:34:55.986Z,84.00
2019-05-22T04:35:56.159Z,80.00
2019-05-22T04:36:56.304Z,80.00
2019-05-22T04:37:56.479Z,88.00
2019-05-22T04:38:56.608Z,96.00
2019-05-22T04:39:56.751Z,92.00
2019-05-22T04:40:58.026Z,96.00
2019-05-22T04:41:57.967Z,104.00
2019-05-22T04:42:57.325Z,116.00
2019-05-22T04:43:57.453Z,112.00
2019-05-22T04:44:57.594Z,108.00
2019-05-22T04:45:57.727Z,104.00
2019-05-22T04:46:57.868Z,100.00
2019-05-22T04:47:58.006Z,108.00
2019-05-22T04:48:58.183Z,108.00
2019-05-22T04:50:07.127Z,112.00
2019-05-22T04:51:00.584Z,108.00
2019-05-22T04:51:59.481Z,116.00
2019-05-22T04:52:58.855Z,112.00
2019-05-22T04:53:58.991Z,112.00
2019-05-22T04:54:59.128Z,112.00
2019-05-22T04:55:59.275Z,116.00
2019-05-22T04:56:59.415Z,120.00
2019-05-22T04:57:59.608Z,116.00
2019-05-22T04:58:59.748Z,120.00
2019-05-22T04:59:59.901Z,128.00
2019-05-22T05:01:00.981Z,128.00
2019-05-22T05:02:00.238Z,124.00
2019-05-22T05:03:00.489Z,124.00
2019-05-22T05:04:01.003Z,128.00
2019-05-22T05:05:00.763Z,116.00
2019-05-22T05:06:00.937Z,116.00
2019-05-22T05:07:01.085Z,144.00
2019-05-22T05:08:01.473Z,140.00
2019-05-22T05:09:01.573Z,124.00
2019-05-22T05:10:01.653Z,144.00
2019-05-22T05:11:01.833Z,148.00
2019-05-22T05:12:01.919Z,156.00
2019-05-22T05:13:02.486Z,156.00
2019-05-22T05:14:03.230Z,152.00
2019-05-22T05:15:02.447Z,144.00
2019-05-22T05:16:02.697Z,148.00
2019-05-22T05:17:02.840Z,132.00
2019-05-22T05:18:02.991Z,116.00
2019-05-22T05:19:03.167Z,120.00
2019-05-22T05:20:03.314Z,148.00
2019-05-22T05:21:03.440Z,156.00
2019-05-22T05:22:03.570Z,156.00
2019-05-22T05:23:03.737Z,136.00
2019-05-22T05:24:03.899Z,112.00
2019-05-22T05:25:04.052Z,116.00
2019-05-22T05:26:04.183Z,112.00
2019-05-22T05:27:04.993Z,104.00
2019-05-22T05:28:04.600Z,120.00
2019-05-22T05:29:04.969Z,128.00
2019-05-22T05:30:04.977Z,124.00
2019-05-22T05:31:05.217Z,112.00
2019-05-22T05:32:05.367Z,136.00
2019-05-22T05:33:06.471Z,148.00
2019-05-22T05:34:05.702Z,176.00
2019-05-22T05:35:05.836Z,188.00
2019-05-22T05:36:05.974Z,176.00
2019-05-22T05:37:06.098Z,172.00
2019-05-22T05:38:06.220Z,180.00
2019-05-22T05:39:06.502Z,184.00
2019-05-22T05:40:06.998Z,224.00
2019-05-22T05:41:06.761Z,224.00
2019-05-22T05:42:06.904Z,216.00
2019-05-22T05:43:07.160Z,192.00
2019-05-22T05:44:07.975Z,192.00
2019-05-22T05:45:07.488Z,200.00
2019-05-22T05:46:08.481Z,208.00
2019-05-22T05:47:07.847Z,216.00
2019-05-22T05:48:07.983Z,220.00
2019-05-22T05:49:08.970Z,240.00
2019-05-22T05:50:08.319Z,256.00
2019-05-22T05:51:08.458Z,268.00
2019-05-22T05:52:08.596Z,264.00
2019-05-22T05:53:09.507Z,264.00
2019-05-22T05:54:08.860Z,260.00
2019-05-22T05:55:09.009Z,244.00
2019-05-22T05:56:09.146Z,248.00
2019-05-22T05:57:09.297Z,228.00
2019-05-22T05:58:09.443Z,256.00
2019-05-22T05:59:09.577Z,260.00
2019-05-22T06:00:09.702Z,240.00
2019-05-22T06:01:09.863Z,252.00
2019-05-22T06:02:10.980Z,292.00
2019-05-22T06:03:10.226Z,280.00
2019-05-22T06:04:10.373Z,244.00
2019-05-22T06:05:10.566Z,268.00
2019-05-22T06:06:10.719Z,296.00
2019-05-22T06:07:10.864Z,296.00
2019-05-22T06:08:11.028Z,300.00
2019-05-22T06:09:11.176Z,332.00
2019-05-22T06:10:11.985Z,324.00
2019-05-22T06:11:11.461Z,320.00
2019-05-22T06:12:11.604Z,320.00
2019-05-22T06:13:11.794Z,300.00
2019-05-22T06:14:11.953Z,280.00
2019-05-22T06:15:12.100Z,276.00
2019-05-22T06:16:12.224Z,292.00
2019-05-22T06:17:12.504Z,304.00
2019-05-22T06:18:12.539Z,316.00
2019-05-22T06:19:13.489Z,324.00
2019-05-22T06:20:12.996Z,328.00
2019-05-22T06:21:14.004Z,312.00
2019-05-22T06:22:13.274Z,328.00
2019-05-22T06:23:13.447Z,348.00
2019-05-22T06:24:14.502Z,324.00
2019-05-22T06:25:13.810Z,288.00
2019-05-22T06:26:13.964Z,316.00
2019-05-22T06:27:14.158Z,300.00
2019-05-22T06:28:14.305Z,336.00
2019-05-22T06:29:14.991Z,404.00
2019-05-22T06:30:14.645Z,400.00
2019-05-22T06:31:14.809Z,328.00
2019-05-22T06:32:15.000Z,300.00
2019-05-22T06:33:15.145Z,320.00
2019-05-22T06:34:15.272Z,332.00
2019-05-22T06:35:15.440Z,344.00
2019-05-22T06:36:16.499Z,348.00
2019-05-22T06:37:15.730Z,360.00
2019-05-22T06:38:15.984Z,376.00
2019-05-22T06:39:16.147Z,404.00
2019-05-22T06:40:16.506Z,408.00
2019-05-22T06:41:17.527Z,428.00
2019-05-22T06:42:16.654Z,488.00
2019-05-22T06:43:16.788Z,488.00
2019-05-22T06:44:16.928Z,464.00
2019-05-22T06:45:17.058Z,428.00
2019-05-22T06:46:17.550Z,436.00
2019-05-22T06:47:17.389Z,424.00
2019-05-22T06:48:18.495Z,424.00
2019-05-22T06:49:17.833Z,452.00
2019-05-22T06:50:18.058Z,476.00
2019-05-22T06:51:19.628Z,484.00
2019-05-22T06:52:19.355Z,484.00
2019-05-22T06:53:19.513Z,524.00
2019-05-22T06:54:18.727Z,524.00
2019-05-22T06:55:18.851Z,532.00
2019-05-22T06:56:19.001Z,512.00
2019-05-22T06:57:19.124Z,528.00
2019-05-22T06:58:19.284Z,536.00
2019-05-22T06:59:19.490Z,568.00
2019-05-22T07:00:19.662Z,600.00
2019-05-22T07:01:19.794Z,628.00
2019-05-22T07:02:19.934Z,640.00
2019-05-22T07:03:20.180Z,680.00
2019-05-22T07:04:20.306Z,752.00
2019-05-22T07:05:20.458Z,716.00
2019-05-22T07:06:20.589Z,692.00
2019-05-22T07:07:20.744Z,760.00
2019-05-22T07:08:21.533Z,768.00
2019-05-22T07:09:21.992Z,832.00
2019-05-22T07:10:21.208Z,864.00
2019-05-22T07:11:21.342Z,932.00
2019-05-22T07:12:22.009Z,960.00
2019-05-22T07:13:21.765Z,1028.00
2019-05-22T07:14:21.912Z,1196.00
2019-05-22T07:15:22.038Z,1272.00
2019-05-22T07:16:22.158Z,1272.00
2019-05-22T07:17:22.323Z,1120.00
2019-05-22T07:18:22.459Z,972.00
2019-05-22T07:19:22.594Z,880.00
2019-05-22T07:20:22.760Z,828.00
2019-05-22T07:21:33.702Z,800.00
2019-05-22T07:22:25.106Z,724.00
2019-05-22T07:23:23.331Z,696.00
2019-05-22T07:24:23.469Z,728.00
2019-05-22T07:25:24.504Z,812.00
2019-05-22T07:26:23.856Z,904.00
2019-05-22T07:27:24.115Z,940.00
2019-05-22T07:28:24.236Z,932.00
2019-05-22T07:29:24.350Z,824.00
2019-05-22T07:30:25.502Z,772.00
2019-05-22T07:31:24.763Z,808.00
2019-05-22T07:32:24.900Z,872.00
2019-05-22T07:33:25.044Z,860.00
2019-05-22T07:34:25.999Z,848.00
2019-05-22T07:35:43.744Z,824.00
2019-05-22T07:36:26.508Z,824.00
2019-05-22T07:37:25.616Z,836.00
2019-05-22T07:38:25.774Z,900.00
2019-05-22T07:39:25.927Z,876.00
2019-05-22T07:40:26.042Z,832.00
2019-05-22T07:41:27.003Z,832.00
2019-05-22T07:42:26.522Z,884.00
2019-05-22T07:43:26.532Z,960.00
2019-05-22T07:44:26.650Z,944.00
2019-05-22T07:45:26.805Z,940.00
2019-05-22T07:46:30.668Z,936.00
2019-05-22T07:47:27.197Z,956.00
2019-05-22T07:48:27.351Z,1000.00
2019-05-22T07:49:27.493Z,1032.00
2019-05-22T07:50:27.636Z,1088.00
2019-05-22T07:51:27.774Z,1136.00
2019-05-22T07:52:27.931Z,1192.00
2019-05-22T07:54:01.964Z,1208.00
2019-05-22T07:54:29.031Z,1228.00
2019-05-22T07:55:28.537Z,1216.00
2019-05-22T07:56:28.678Z,1192.00
2019-05-22T07:57:29.529Z,1188.00
2019-05-22T07:58:29.045Z,1244.00
2019-05-22T07:59:29.164Z,1276.00
2019-05-22T08:00:29.299Z,1236.00
2019-05-22T08:01:29.423Z,1156.00
2019-05-22T08:02:29.658Z,1128.00
2019-05-22T08:03:30.051Z,1100.00
2019-05-22T08:04:30.045Z,1096.00
2019-05-22T08:05:30.285Z,1108.00
2019-05-22T08:06:30.433Z,1080.00
2019-05-22T08:07:31.582Z,1092.00
2019-05-22T08:08:30.760Z,1092.00
2019-05-22T08:09:30.890Z,1112.00
2019-05-22T08:10:32.048Z,1128.00
2019-05-22T08:11:31.419Z,1128.00
2019-05-22T08:12:31.312Z,1120.00
2019-05-22T08:13:31.493Z,1112.00
2019-05-22T08:14:32.561Z,1136.00
2019-05-22T08:15:32.058Z,1188.00
2019-05-22T08:16:32.552Z,1236.00
2019-05-22T08:17:32.165Z,1296.00
2019-05-22T08:18:32.364Z,1384.00
2019-05-22T08:19:32.533Z,1496.00
2019-05-22T08:20:32.688Z,1580.00
2019-05-22T08:21:32.854Z,1672.00
2019-05-22T08:22:33.545Z,1724.00
2019-05-22T08:23:33.194Z,1772.00
2019-05-22T08:24:33.340Z,1796.00
2019-05-22T08:25:33.481Z,1864.00
2019-05-22T08:26:34.048Z,1872.00
2019-05-22T08:27:34.771Z,1840.00
2019-05-22T08:28:33.900Z,1788.00
2019-05-22T08:29:34.064Z,1696.00
2019-05-22T08:30:34.220Z,1660.00
2019-05-22T08:31:34.359Z,1592.00
2019-05-22T08:32:34.498Z,1544.00
2019-05-22T08:33:34.620Z,1508.00
2019-05-22T08:34:34.754Z,1480.00
2019-05-22T08:35:34.892Z,1436.00
2019-05-22T08:36:38.626Z,1432.00
2019-05-22T08:37:36.051Z,1432.00
2019-05-22T08:38:35.293Z,1420.00
2019-05-22T08:39:36.054Z,1388.00
2019-05-22T08:40:35.601Z,1368.00
2019-05-22T08:41:35.761Z,1400.00
2019-05-22T08:42:35.970Z,1424.00
2019-05-22T08:43:55.859Z,1408.00
2019-05-22T08:44:38.289Z,1372.00
2019-05-22T08:45:36.516Z,1360.00
2019-05-22T08:46:36.547Z,1364.00
2019-05-22T08:47:36.739Z,1384.00
2019-05-22T08:48:36.903Z,1436.00
2019-05-22T08:49:37.066Z,1496.00
2019-05-22T08:50:39.051Z,1528.00
2019-05-22T08:51:37.558Z,1552.00
2019-05-22T08:52:38.551Z,1556.00
2019-05-22T08:53:46.621Z,1580.00
2019-05-22T08:54:40.003Z,1640.00
2019-05-22T08:55:39.053Z,1676.00
2019-05-22T08:56:38.435Z,1696.00
2019-05-22T08:57:38.552Z,1704.00
2019-05-22T08:58:38.684Z,1716.00
2019-05-22T08:59:39.540Z,1728.00
2019-05-22T09:00:39.020Z,1720.00
2019-05-22T09:01:39.131Z,1672.00
2019-05-22T09:02:39.365Z,1680.00
2019-05-22T09:03:39.521Z,1692.00
2019-05-22T09:04:40.546Z,1728.00
2019-05-22T09:05:39.751Z,1804.00
2019-05-22T09:06:40.561Z,1872.00
2019-05-22T09:07:40.056Z,1932.00
2019-05-22T09:08:40.621Z,1920.00
2019-05-22T09:09:40.338Z,1892.00
2019-05-22T09:10:40.446Z,1828.00
2019-05-22T09:11:40.666Z,1816.00
2019-05-22T09:12:41.551Z,1844.00
2019-05-22T09:13:41.177Z,1872.00
2019-05-22T09:14:41.276Z,1840.00
2019-05-22T09:15:41.380Z,1840.00
2019-05-22T09:16:41.499Z,1784.00
2019-05-22T09:17:42.580Z,1708.00
2019-05-22T09:18:41.951Z,1648.00
2019-05-22T09:19:42.045Z,1604.00
2019-05-22T09:20:49.393Z,1580.00
2019-05-22T09:21:44.409Z,1572.00
2019-05-22T09:22:42.589Z,1596.00
2019-05-22T09:23:42.708Z,1612.00
2019-05-22T09:24:42.962Z,1712.00
2019-05-22T09:25:43.088Z,1828.00
2019-05-22T09:26:43.219Z,1948.00
2019-05-22T09:27:43.377Z,2016.00
2019-05-22T09:28:43.521Z,1996.00
2019-05-22T09:29:44.074Z,1880.00
2019-05-22T09:30:43.819Z,1724.00
2019-05-22T09:31:44.024Z,1556.00
2019-05-22T09:32:47.501Z,1480.00
2019-05-22T09:33:45.357Z,1528.00
2019-05-22T09:34:44.496Z,1640.00
2019-05-22T09:35:44.707Z,1756.00
2019-05-22T09:36:44.848Z,1896.00
2019-05-22T09:37:44.993Z,2004.00
2019-05-22T09:38:46.063Z,2116.00
2019-05-22T09:39:45.303Z,2264.00
2019-05-22T09:40:45.575Z,2284.00
2019-05-22T09:41:46.079Z,2264.00
2019-05-22T09:42:45.731Z,2212.00
2019-05-22T09:43:45.875Z,2092.00
2019-05-22T09:44:46.050Z,1964.00
2019-05-22T09:45:46.220Z,1844.00
2019-05-22T09:46:47.070Z,1720.00
2019-05-22T09:47:46.555Z,1612.00
2019-05-22T09:48:47.587Z,1512.00
2019-05-22T09:49:46.864Z,1492.00
2019-05-22T09:50:47.033Z,1592.00
2019-05-22T09:51:47.210Z,1716.00
2019-05-22T09:52:56.870Z,1924.00
2019-05-22T09:53:50.565Z,2076.00
2019-05-22T09:54:48.069Z,2152.00
2019-05-22T09:55:47.972Z,2200.00
2019-05-22T09:56:48.129Z,2316.00
2019-05-22T09:57:48.289Z,2496.00
2019-05-22T09:58:49.077Z,2808.00
2019-05-22T09:59:48.688Z,3008.00
2019-05-22T10:00:48.850Z,3184.00
2019-05-22T10:01:48.971Z,3524.00
2019-05-22T10:02:49.217Z,3888.00
2019-05-22T10:03:49.341Z,4136.00
2019-05-22T10:04:49.470Z,4764.00
2019-05-22T10:05:50.202Z,4768.00
2019-05-22T10:06:49.824Z,4712.00
2019-05-22T10:08:00.389Z,4728.00
2019-05-22T10:08:52.077Z,4708.00
2019-05-22T10:09:50.285Z,4600.00
2019-05-22T10:10:50.444Z,4060.00
2019-05-22T10:11:51.561Z,3576.00
2019-05-22T10:12:51.590Z,3252.00
2019-05-22T10:13:50.991Z,2996.00
2019-05-22T10:14:51.270Z,2652.00
2019-05-22T10:15:51.299Z,2560.00
2019-05-22T10:16:51.441Z,2472.00
2019-05-22T10:17:51.566Z,2528.00
2019-05-22T10:18:53.316Z,2572.00
2019-05-22T10:19:52.944Z,2612.00
2019-05-22T10:20:52.075Z,3324.00
2019-05-22T10:21:53.058Z,3636.00
2019-05-22T10:22:52.426Z,4048.00
2019-05-22T10:23:52.522Z,4060.00
2019-05-22T10:24:52.658Z,4376.00
2019-05-22T10:25:52.787Z,4180.00
2019-05-22T10:26:53.037Z,4160.00
2019-05-22T10:27:53.150Z,4160.00
2019-05-22T10:28:53.301Z,3988.00
2019-05-22T10:29:54.061Z,3824.00
2019-05-22T10:30:55.438Z,3728.00
2019-05-22T10:31:53.831Z,3544.00
2019-05-22T10:32:53.976Z,4012.00
2019-05-22T10:33:54.122Z,3964.00
2019-05-22T10:34:57.635Z,3828.00
2019-05-22T10:35:54.449Z,3912.00
2019-05-22T10:36:54.610Z,3792.00
2019-05-22T10:37:54.757Z,3704.00
2019-05-22T10:38:54.904Z,3652.00
2019-05-22T10:39:55.581Z,3600.00
2019-05-22T10:40:58.887Z,3332.00
2019-05-22T10:41:56.403Z,3112.00
2019-05-22T10:42:55.640Z,3000.00
2019-05-22T10:43:55.820Z,2840.00
2019-05-22T10:44:55.974Z,2808.00
2019-05-22T10:45:56.135Z,2916.00
2019-05-22T10:46:57.093Z,3072.00
2019-05-22T10:47:56.442Z,3484.00
2019-05-22T10:48:57.569Z,3572.00
2019-05-22T10:49:56.806Z,3740.00
2019-05-22T10:50:57.001Z,3672.00
2019-05-22T10:51:58.081Z,4304.00
2019-05-22T10:52:57.311Z,3852.00
2019-05-22T10:53:58.065Z,4996.00
2019-05-22T10:54:57.724Z,4052.00
2019-05-22T10:55:57.902Z,4800.00
2019-05-22T10:56:58.581Z,3728.00
2019-05-22T10:57:59.064Z,3572.00
2019-05-22T10:59:01.577Z,3352.00
2019-05-22T10:59:59.534Z,3292.00
2019-05-22T11:00:58.776Z,3300.00
2019-05-22T11:01:58.918Z,3308.00
2019-05-22T11:02:59.053Z,3444.00
2019-05-22T11:03:59.200Z,3360.00
2019-05-22T11:04:59.319Z,4284.00
2019-05-22T11:06:07.288Z,4488.00
2019-05-22T11:07:01.650Z,3320.00
2019-05-22T11:07:59.853Z,3368.00
2019-05-22T11:08:59.958Z,3484.00
2019-05-22T11:10:00.115Z,3440.00
2019-05-22T11:11:00.333Z,3416.00
2019-05-22T11:12:00.476Z,3380.00
2019-05-22T11:13:01.107Z,4228.00
2019-05-22T11:14:02.129Z,4596.00
2019-05-22T11:15:01.901Z,3508.00
2019-05-22T11:16:01.156Z,3500.00
2019-05-22T11:17:01.627Z,3480.00
2019-05-22T11:18:02.477Z,3644.00
2019-05-22T11:19:01.672Z,3324.00
2019-05-22T11:20:01.826Z,3624.00
2019-05-22T11:21:02.006Z,3284.00
2019-05-22T11:22:03.089Z,3504.00
2019-05-22T11:23:02.494Z,4168.00
2019-05-22T11:24:02.513Z,4180.00
2019-05-22T11:25:02.724Z,3948.00
2019-05-22T11:26:02.893Z,4048.00
2019-05-22T11:27:03.089Z,2984.00
2019-05-22T11:28:03.234Z,2972.00
2019-05-22T11:29:04.365Z,3164.00
2019-05-22T11:30:04.082Z,3468.00
2019-05-22T11:31:03.690Z,3476.00
2019-05-22T11:32:03.923Z,3492.00
2019-05-22T11:33:04.061Z,3972.00
2019-05-22T11:34:04.238Z,4464.00
2019-05-22T11:35:04.395Z,4148.00
2019-05-22T11:36:05.093Z,3132.00
2019-05-22T11:37:04.745Z,3112.00
2019-05-22T11:38:04.898Z,2988.00
2019-05-22T11:39:05.062Z,3084.00
2019-05-22T11:40:05.223Z,4368.00
2019-05-22T11:41:06.078Z,4368.00
2019-05-22T11:42:05.598Z,4284.00
2019-05-22T11:43:05.735Z,4252.00
2019-05-22T11:44:05.877Z,4424.00
2019-05-22T11:45:06.044Z,3396.00
2019-05-22T11:46:06.177Z,4412.00
2019-05-22T11:47:06.308Z,4348.00
2019-05-22T11:48:06.497Z,3016.00
2019-05-22T11:49:06.649Z,3012.00
2019-05-22T11:50:06.920Z,4416.00
2019-05-22T11:51:07.012Z,3776.00
2019-05-22T11:52:07.151Z,4196.00
2019-05-22T11:53:07.618Z,4216.00
2019-05-22T11:54:09.795Z,3776.00
2019-05-22T11:55:08.673Z,4016.00
2019-05-22T11:56:07.821Z,3920.00
2019-05-22T11:57:07.959Z,3908.00
2019-05-22T11:58:08.178Z,3960.00
2019-05-22T11:59:08.311Z,3892.00
2019-05-22T12:00:09.345Z,3924.00
2019-05-22T12:01:09.632Z,4108.00
2019-05-22T12:02:09.614Z,2568.00
2019-05-22T12:03:09.976Z,2556.00
2019-05-22T12:04:09.212Z,2480.00
2019-05-22T12:05:09.346Z,2524.00
2019-05-22T12:06:09.516Z,2668.00
2019-05-22T12:07:09.666Z,4252.00
2019-05-22T12:08:10.122Z,4372.00
2019-05-22T12:09:10.078Z,3744.00
2019-05-22T12:10:10.214Z,4312.00
2019-05-22T12:11:11.116Z,4396.00
2019-05-22T12:12:11.110Z,2824.00
2019-05-22T12:13:12.172Z,2624.00
2019-05-22T12:14:10.927Z,2520.00
2019-05-22T12:15:11.124Z,2568.00
2019-05-22T12:16:11.245Z,2768.00
2019-05-22T12:17:11.404Z,2560.00
2019-05-22T12:18:12.097Z,2748.00
2019-05-22T12:19:11.722Z,2780.00
2019-05-22T12:20:11.867Z,2968.00
2019-05-22T12:21:12.008Z,2904.00
2019-05-22T12:22:12.609Z,3204.00
2019-05-22T12:23:12.350Z,2808.00
2019-05-22T12:24:26.209Z,2668.00
2019-05-22T12:25:14.128Z,2640.00
2019-05-22T12:26:13.622Z,2844.00
2019-05-22T12:27:12.989Z,3140.00
2019-05-22T12:28:13.125Z,4684.00
2019-05-22T12:29:16.853Z,4648.00
2019-05-22T12:30:14.170Z,2896.00
2019-05-22T12:31:14.732Z,2692.00
2019-05-22T12:32:13.866Z,2540.00
2019-05-22T12:33:14.473Z,2424.00
2019-05-22T12:34:49.869Z,2424.00
2019-05-22T12:35:14.408Z,2540.00
2019-05-22T12:36:14.532Z,2708.00